Galax, Virginia
Current Conditions -  °F | °C
As of 1:15 AM on Friday 19 Dec 2014 (Local Time) from KHLX Reporting Station
Overcast Overcast  
Wind Chill: 26°   Ceiling: 4400
Heat Index: 34°   Visibility: 10mi
Dew Point: 25°   Wind: 10mph
Humidity: 69%   Direction: 300°WNW
Pressure: 30.07"   Gusts: NA
Location:  36.67°N, 80.93°W
Report Text: KHLX 190615Z AUTO 30009KT 10SM OVC044 01/M04 A3007 RMK AO2 T00121040
Loading
Personal Weather Stations






























Interactive Weather Map New forecast layout! Learn more

10-Day Weather Forecast

Advertisements
Track Severe Weather on mobile